Impacts METAR Board
IDs:

KSFO - San Francisco Intl, CA, US

Updated at: 1900 UTC 17 Jul 2018
Potential Impact None Slight Moderate High
Time 17/07Z 17/08Z 17/09Z 17/10Z 17/11Z 17/12Z 17/13Z 17/14Z 17/15Z 17/16Z 17/17Z 17/18Z 17/19Z
Temp56 55 56 55 55 57 56 56 56 58 62 64 66
Dewpt53 53 53 52 53 53 53 52 53 53 54 55 55
Altim29.98 29.99 29.99 29.99 29.99 29.98 29.99 30.01 30.02 30.02 30.02 30.01 30.01
VIS10 10 10 10 10 10 10 9 9 9 10 10 10
CIG-- -- -- -- -- 8 6 6 6 10 -- -- --
CoverFEWFEWFEWFEWSCTBKNOVCOVCOVCBKNSCTFEWFEW
FltCatVFRVFRVFRVFRVFRIFRIFRIFRIFRMVFRVFRVFRVFR
WX--------------------------
WDir29030028029028029027022000330320300
WSpd11 11 9 10 8 8 7 5 3 0 6 12 13
WGst-- -- -- -- -- -- -- -- -- -- -- -- --
Raw hourly METARs
KSFO 170656Z 29011KT 10SM FEW007 13/12 A2998 RMK AO2 SLP152 T01330117
KSFO 170756Z 30011KT 10SM FEW005 13/12 A2999 RMK AO2 SLP154 T01280117 402060128
KSFO 170856Z 28009KT 10SM FEW005 13/12 A2999 RMK AO2 SLP155 T01330117 53004
KSFO 170956Z 29010KT 10SM FEW004 FEW008 13/11 A2999 RMK AO2 SLP155 T01280111
KSFO 171056Z 28008KT 10SM FEW004 FEW007 SCT200 13/12 A2999 RMK AO2 SLP153 T01280117
KSFO 171156Z 29008KT 10SM FEW004 BKN008 14/12 A2998 RMK AO2 SLP153 T01390117 10139 20128 58002
KSFO 171256Z 27007KT 10SM FEW003 OVC006 13/12 A2999 RMK AO2 SLP156 T01330117
KSFO 171356Z 22005KT 9SM FEW004 OVC006 13/11 A3001 RMK AO2 SLP161 T01330111
KSFO 171456Z VRB03KT 9SM FEW004 OVC006 13/12 A3002 RMK AO2 SLP166 T01330117 53013
KSFO 171556Z 00000KT 9SM FEW005 BKN010 14/12 A3002 RMK AO2 SLP166 T01440117
KSFO 171656Z 33006KT 10SM FEW007 SCT010 17/12 A3002 RMK AO2 SLP165 T01670122
KSFO 171756Z 32012KT 10SM FEW020 18/13 A3001 RMK AO2 SLP163 T01780128 10183 20128 58003
KSFO 171856Z 30013KT 10SM FEW020 FEW200 19/13 A3001 RMK AO2 SLP162 T01890128



Page loaded:  19:37 UTC  |   12:37 PM Pacific  |   01:37 PM Mountain  |   02:37 PM Central  |   03:37 PM Eastern

 

ADVISORIES

FORECASTS

FORECASTS

OBSERVATIONS

USER TOOLS

ABOUT US